sensor_id;sensor_type;location;lat;lon;timestamp;pressure;altitude;pressure_sealevel;temperature;humidity
26807;BME280;14380;49.910;6.792;2024-03-02T00:00:03;97361.16;;;10.63;72.36
26807;BME280;14380;49.910;6.792;2024-03-02T00:02:40;97358.09;;;10.34;74.47
26807;BME280;14380;49.910;6.792;2024-03-02T00:05:07;97355.94;;;10.27;73.68
26807;BME280;14380;49.910;6.792;2024-03-02T00:07:37;97353.72;;;10.57;72.70
26807;BME280;14380;49.910;6.792;2024-03-02T00:10:08;97346.09;;;10.30;74.88
26807;BME280;14380;49.910;6.792;2024-03-02T00:12:35;97344.97;;;10.45;75.33
26807;BME280;14380;49.910;6.792;2024-03-02T00:15:06;97341.38;;;10.46;74.23
26807;BME280;14380;49.910;6.792;2024-03-02T00:17:53;97336.69;;;10.50;74.16
26807;BME280;14380;49.910;6.792;2024-03-02T00:20:22;97336.94;;;10.58;72.45
26807;BME280;14380;49.910;6.792;2024-03-02T00:22:49;97339.75;;;10.21;74.38
26807;BME280;14380;49.910;6.792;2024-03-02T00:25:16;97345.03;;;10.21;73.73
26807;BME280;14380;49.910;6.792;2024-03-02T00:27:47;97349.97;;;10.37;72.91
26807;BME280;14380;49.910;6.792;2024-03-02T00:30:41;97346.16;;;10.52;71.04
26807;BME280;14380;49.910;6.792;2024-03-02T00:33:14;97349.66;;;10.64;71.43
26807;BME280;14380;49.910;6.792;2024-03-02T00:35:44;97345.44;;;10.39;71.23
26807;BME280;14380;49.910;6.792;2024-03-02T00:38:14;97351.44;;;10.64;71.43
26807;BME280;14380;49.910;6.792;2024-03-02T00:40:41;97355.53;;;10.45;71.49
26807;BME280;14380;49.910;6.792;2024-03-02T00:43:16;97353.38;;;10.50;69.87
26807;BME280;14380;49.910;6.792;2024-03-02T00:45:49;97349.88;;;10.73;70.97
26807;BME280;14380;49.910;6.792;2024-03-02T00:48:17;97340.75;;;10.65;71.17
26807;BME280;14380;49.910;6.792;2024-03-02T00:50:44;97345.94;;;10.55;71.69
26807;BME280;14380;49.910;6.792;2024-03-02T00:53:12;97340.28;;;10.60;71.13
26807;BME280;14380;49.910;6.792;2024-03-02T00:55:39;97345.09;;;10.66;70.83
26807;BME280;14380;49.910;6.792;2024-03-02T00:58:09;97339.81;;;10.78;69.95
26807;BME280;14380;49.910;6.792;2024-03-02T01:00:36;97350.13;;;10.58;70.17
26807;BME280;14380;49.910;6.792;2024-03-02T01:03:02;97349.63;;;10.41;71.43
26807;BME280;14380;49.910;6.792;2024-03-02T01:05:30;97338.06;;;10.08;72.59
26807;BME280;14380;49.910;6.792;2024-03-02T01:07:57;97340.34;;;10.24;70.96
26807;BME280;14380;49.910;6.792;2024-03-02T01:10:24;97331.97;;;10.88;70.33
26807;BME280;14380;49.910;6.792;2024-03-02T01:12:51;97350.13;;;10.69;70.83
26807;BME280;14380;49.910;6.792;2024-03-02T01:15:19;97348.78;;;10.64;71.49
26807;BME280;14380;49.910;6.792;2024-03-02T01:17:46;97346.91;;;10.54;71.52
26807;BME280;14380;49.910;6.792;2024-03-02T01:20:12;97348.31;;;10.70;73.69
26807;BME280;14380;49.910;6.792;2024-03-02T01:22:40;97348.06;;;10.62;71.58
26807;BME280;14380;49.910;6.792;2024-03-02T01:25:08;97341.84;;;10.40;72.00
26807;BME280;14380;49.910;6.792;2024-03-02T01:27:35;97347.47;;;10.35;74.02
26807;BME280;14380;49.910;6.792;2024-03-02T01:30:02;97354.28;;;10.38;72.25
26807;BME280;14380;49.910;6.792;2024-03-02T01:32:28;97346.25;;;10.39;71.15
26807;BME280;14380;49.910;6.792;2024-03-02T01:34:55;97340.66;;;10.44;70.84
26807;BME280;14380;49.910;6.792;2024-03-02T01:37:21;97337.72;;;10.24;71.18
26807;BME280;14380;49.910;6.792;2024-03-02T01:39:49;97343.06;;;10.47;70.76
26807;BME280;14380;49.910;6.792;2024-03-02T01:42:16;97335.38;;;10.55;71.07
26807;BME280;14380;49.910;6.792;2024-03-02T01:44:42;97331.03;;;10.77;70.30
26807;BME280;14380;49.910;6.792;2024-03-02T01:47:09;97321.56;;;10.75;69.96
26807;BME280;14380;49.910;6.792;2024-03-02T01:49:35;97330.22;;;10.77;70.01
26807;BME280;14380;49.910;6.792;2024-03-02T01:52:04;97332.47;;;10.70;70.74
26807;BME280;14380;49.910;6.792;2024-03-02T01:54:30;97333.09;;;10.74;70.12
26807;BME280;14380;49.910;6.792;2024-03-02T01:56:58;97334.53;;;10.55;69.91
26807;BME280;14380;49.910;6.792;2024-03-02T01:59:25;97322.53;;;10.51;71.09
26807;BME280;14380;49.910;6.792;2024-03-02T02:01:52;97320.00;;;10.72;69.93
26807;BME280;14380;49.910;6.792;2024-03-02T02:04:19;97317.25;;;10.51;70.21
26807;BME280;14380;49.910;6.792;2024-03-02T02:06:52;97323.72;;;10.69;70.74
26807;BME280;14380;49.910;6.792;2024-03-02T02:09:18;97327.03;;;10.94;69.55
26807;BME280;14380;49.910;6.792;2024-03-02T02:11:45;97317.00;;;10.77;70.20
26807;BME280;14380;49.910;6.792;2024-03-02T02:14:13;97323.00;;;10.45;70.39
26807;BME280;14380;49.910;6.792;2024-03-02T02:16:40;97329.44;;;10.97;70.98
26807;BME280;14380;49.910;6.792;2024-03-02T02:19:07;97324.22;;;10.63;71.30
26807;BME280;14380;49.910;6.792;2024-03-02T02:21:36;97316.78;;;10.57;71.24
26807;BME280;14380;49.910;6.792;2024-03-02T02:24:03;97315.09;;;10.67;70.41
26807;BME280;14380;49.910;6.792;2024-03-02T02:26:29;97317.84;;;10.77;70.33
26807;BME280;14380;49.910;6.792;2024-03-02T02:28:56;97317.00;;;10.77;70.07
26807;BME280;14380;49.910;6.792;2024-03-02T02:31:22;97323.84;;;10.79;71.07
26807;BME280;14380;49.910;6.792;2024-03-02T02:33:49;97318.88;;;10.86;71.26
26807;BME280;14380;49.910;6.792;2024-03-02T02:36:16;97324.78;;;11.01;70.74
26807;BME280;14380;49.910;6.792;2024-03-02T02:38:45;97322.00;;;10.91;70.78
26807;BME280;14380;49.910;6.792;2024-03-02T02:41:13;97326.06;;;10.95;72.15
26807;BME280;14380;49.910;6.792;2024-03-02T02:43:40;97327.56;;;10.54;71.57
26807;BME280;14380;49.910;6.792;2024-03-02T02:46:06;97318.56;;;10.79;70.68
26807;BME280;14380;49.910;6.792;2024-03-02T02:48:33;97320.78;;;11.07;71.01
26807;BME280;14380;49.910;6.792;2024-03-02T02:51:00;97313.81;;;11.06;69.87
26807;BME280;14380;49.910;6.792;2024-03-02T02:53:27;97311.50;;;10.57;71.94
26807;BME280;14380;49.910;6.792;2024-03-02T02:55:55;97302.06;;;10.98;70.90
26807;BME280;14380;49.910;6.792;2024-03-02T02:58:21;97311.00;;;10.75;71.74
26807;BME280;14380;49.910;6.792;2024-03-02T03:00:48;97298.97;;;10.82;71.18
26807;BME280;14380;49.910;6.792;2024-03-02T03:03:15;97308.13;;;10.66;72.14
26807;BME280;14380;49.910;6.792;2024-03-02T03:05:41;97304.06;;;10.62;72.80
26807;BME280;14380;49.910;6.792;2024-03-02T03:08:08;97301.31;;;10.41;72.13
26807;BME280;14380;49.910;6.792;2024-03-02T03:10:34;97311.63;;;10.44;72.81
26807;BME280;14380;49.910;6.792;2024-03-02T03:13:04;97307.06;;;10.58;73.34
26807;BME280;14380;49.910;6.792;2024-03-02T03:15:34;97311.38;;;10.47;73.32
26807;BME280;14380;49.910;6.792;2024-03-02T03:18:01;97306.69;;;10.28;74.52
26807;BME280;14380;49.910;6.792;2024-03-02T03:20:28;97308.13;;;10.78;73.87
26807;BME280;14380;49.910;6.792;2024-03-02T03:22:55;97315.69;;;10.71;73.70
26807;BME280;14380;49.910;6.792;2024-03-02T03:25:22;97309.34;;;10.62;73.88
26807;BME280;14380;49.910;6.792;2024-03-02T03:27:48;97320.72;;;10.63;73.40
26807;BME280;14380;49.910;6.792;2024-03-02T03:30:18;97321.94;;;10.47;74.67
26807;BME280;14380;49.910;6.792;2024-03-02T03:32:45;97316.28;;;10.75;73.46
26807;BME280;14380;49.910;6.792;2024-03-02T03:35:16;97315.09;;;10.56;73.70
26807;BME280;14380;49.910;6.792;2024-03-02T03:37:43;97316.91;;;10.55;74.24
26807;BME280;14380;49.910;6.792;2024-03-02T03:40:11;97315.19;;;10.66;74.41
26807;BME280;14380;49.910;6.792;2024-03-02T03:42:39;97318.06;;;10.74;75.70
26807;BME280;14380;49.910;6.792;2024-03-02T03:45:06;97317.63;;;10.46;75.60
26807;BME280;14380;49.910;6.792;2024-03-02T03:47:34;97317.13;;;10.41;75.71
26807;BME280;14380;49.910;6.792;2024-03-02T03:50:01;97320.59;;;10.53;77.22
26807;BME280;14380;49.910;6.792;2024-03-02T03:52:32;97326.13;;;10.50;76.45
26807;BME280;14380;49.910;6.792;2024-03-02T03:54:58;97327.47;;;10.55;75.30
26807;BME280;14380;49.910;6.792;2024-03-02T03:57:25;97326.06;;;10.16;76.06
26807;BME280;14380;49.910;6.792;2024-03-02T03:59:52;97334.94;;;10.15;76.15
26807;BME280;14380;49.910;6.792;2024-03-02T04:02:18;97339.16;;;10.29;76.46
26807;BME280;14380;49.910;6.792;2024-03-02T04:04:46;97333.38;;;10.23;75.93
26807;BME280;14380;49.910;6.792;2024-03-02T04:07:13;97336.84;;;10.12;75.51
26807;BME280;14380;49.910;6.792;2024-03-02T04:09:40;97337.06;;;9.98;76.08
26807;BME280;14380;49.910;6.792;2024-03-02T04:12:06;97342.19;;;10.35;76.36
26807;BME280;14380;49.910;6.792;2024-03-02T04:14:33;97342.59;;;10.06;76.62
26807;BME280;14380;49.910;6.792;2024-03-02T04:16:59;97345.38;;;10.16;75.71
26807;BME280;14380;49.910;6.792;2024-03-02T04:19:26;97353.19;;;10.29;75.40
26807;BME280;14380;49.910;6.792;2024-03-02T04:21:54;97355.34;;;10.24;75.43
26807;BME280;14380;49.910;6.792;2024-03-02T04:24:20;97362.41;;;10.23;75.24
26807;BME280;14380;49.910;6.792;2024-03-02T04:26:47;97364.09;;;10.13;75.93
26807;BME280;14380;49.910;6.792;2024-03-02T04:29:14;97369.91;;;10.41;76.13
26807;BME280;14380;49.910;6.792;2024-03-02T04:31:40;97373.75;;;10.01;77.42
26807;BME280;14380;49.910;6.792;2024-03-02T04:34:07;97371.72;;;10.05;76.98
26807;BME280;14380;49.910;6.792;2024-03-02T04:36:34;97371.50;;;10.08;76.62
26807;BME280;14380;49.910;6.792;2024-03-02T04:39:02;97376.31;;;10.25;75.99
26807;BME280;14380;49.910;6.792;2024-03-02T04:41:29;97372.03;;;10.36;76.73
26807;BME280;14380;49.910;6.792;2024-03-02T04:43:56;97367.97;;;9.96;78.07
26807;BME280;14380;49.910;6.792;2024-03-02T04:46:22;97359.66;;;10.25;78.44
26807;BME280;14380;49.910;6.792;2024-03-02T04:48:50;97367.75;;;9.88;79.97
26807;BME280;14380;49.910;6.792;2024-03-02T04:51:20;97379.06;;;10.12;78.62
26807;BME280;14380;49.910;6.792;2024-03-02T04:53:47;97383.78;;;9.96;78.69
26807;BME280;14380;49.910;6.792;2024-03-02T04:56:15;97382.19;;;9.82;80.65
26807;BME280;14380;49.910;6.792;2024-03-02T04:59:05;97396.06;;;9.24;83.56
26807;BME280;14380;49.910;6.792;2024-03-02T05:01:32;97391.25;;;9.42;84.54
26807;BME280;14380;49.910;6.792;2024-03-02T05:03:59;97396.78;;;9.50;84.80
26807;BME280;14380;49.910;6.792;2024-03-02T05:06:26;97402.19;;;9.49;85.58
26807;BME280;14380;49.910;6.792;2024-03-02T05:08:54;97405.91;;;9.71;85.13
26807;BME280;14380;49.910;6.792;2024-03-02T05:11:25;97395.59;;;9.67;85.72
26807;BME280;14380;49.910;6.792;2024-03-02T05:14:09;97403.97;;;9.73;86.16
26807;BME280;14380;49.910;6.792;2024-03-02T05:16:37;97396.56;;;9.29;89.99
26807;BME280;14380;49.910;6.792;2024-03-02T05:19:07;97394.28;;;9.25;92.86
26807;BME280;14380;49.910;6.792;2024-03-02T05:21:35;97398.16;;;9.56;91.96
26807;BME280;14380;49.910;6.792;2024-03-02T05:24:02;97402.19;;;9.49;92.60
26807;BME280;14380;49.910;6.792;2024-03-02T05:26:30;97412.56;;;9.02;96.05
26807;BME280;14380;49.910;6.792;2024-03-02T05:28:56;97408.91;;;9.29;96.26
26807;BME280;14380;49.910;6.792;2024-03-02T05:31:23;97406.84;;;9.45;95.67
26807;BME280;14380;49.910;6.792;2024-03-02T05:33:49;97413.56;;;9.25;96.57
26807;BME280;14380;49.910;6.792;2024-03-02T05:36:16;97414.00;;;9.19;96.98
26807;BME280;14380;49.910;6.792;2024-03-02T05:38:42;97411.75;;;9.26;97.31
26807;BME280;14380;49.910;6.792;2024-03-02T05:41:09;97412.34;;;9.42;97.69
26807;BME280;14380;49.910;6.792;2024-03-02T05:43:38;97416.06;;;8.89;99.13
26807;BME280;14380;49.910;6.792;2024-03-02T05:46:04;97414.72;;;9.21;98.89
26807;BME280;14380;49.910;6.792;2024-03-02T05:48:31;97419.22;;;8.95;98.51
26807;BME280;14380;49.910;6.792;2024-03-02T05:50:58;97413.00;;;8.70;99.63
26807;BME280;14380;49.910;6.792;2024-03-02T05:53:24;97413.69;;;9.11;98.49
26807;BME280;14380;49.910;6.792;2024-03-02T05:55:51;97420.06;;;8.82;99.33
26807;BME280;14380;49.910;6.792;2024-03-02T05:58:20;97418.78;;;9.01;98.03
26807;BME280;14380;49.910;6.792;2024-03-02T06:00:59;97409.31;;;8.85;100.00
26807;BME280;14380;49.910;6.792;2024-03-02T06:03:25;97420.13;;;9.06;99.81
26807;BME280;14380;49.910;6.792;2024-03-02T06:05:53;97415.63;;;8.96;100.00
26807;BME280;14380;49.910;6.792;2024-03-02T06:08:20;97419.22;;;8.82;100.00
26807;BME280;14380;49.910;6.792;2024-03-02T06:10:46;97420.97;;;8.94;100.00
26807;BME280;14380;49.910;6.792;2024-03-02T06:13:13;97422.50;;;8.72;100.00
26807;BME280;14380;49.910;6.792;2024-03-02T06:15:40;97425.69;;;9.15;100.00
26807;BME280;14380;49.910;6.792;2024-03-02T06:18:08;97419.72;;;9.00;100.00
26807;BME280;14380;49.910;6.792;2024-03-02T06:20:34;97415.09;;;8.90;100.00
26807;BME280;14380;49.910;6.792;2024-03-02T06:23:02;97414.91;;;8.93;100.00
26807;BME280;14380;49.910;6.792;2024-03-02T06:25:28;97406.69;;;8.85;100.00
26807;BME280;14380;49.910;6.792;2024-03-02T06:27:55;97418.56;;;8.91;100.00
26807;BME280;14380;49.910;6.792;2024-03-02T06:30:21;97409.66;;;8.68;100.00
26807;BME280;14380;49.910;6.792;2024-03-02T06:32:48;97416.16;;;8.88;100.00
26807;BME280;14380;49.910;6.792;2024-03-02T06:35:16;97414.41;;;8.75;100.00
26807;BME280;14380;49.910;6.792;2024-03-02T06:37:42;97426.28;;;8.68;100.00
26807;BME280;14380;49.910;6.792;2024-03-02T06:40:09;97429.25;;;8.76;100.00
26807;BME280;14380;49.910;6.792;2024-03-02T06:42:36;97423.94;;;8.89;100.00
26807;BME280;14380;49.910;6.792;2024-03-02T06:45:03;97425.81;;;9.00;100.00
26807;BME280;14380;49.910;6.792;2024-03-02T06:47:30;97424.97;;;9.13;100.00
26807;BME280;14380;49.910;6.792;2024-03-02T06:49:56;97427.69;;;9.11;100.00
26807;BME280;14380;49.910;6.792;2024-03-02T06:52:25;97428.25;;;9.03;100.00
26807;BME280;14380;49.910;6.792;2024-03-02T06:54:51;97428.03;;;9.44;100.00
26807;BME280;14380;49.910;6.792;2024-03-02T06:57:18;97429.31;;;9.38;100.00
26807;BME280;14380;49.910;6.792;2024-03-02T06:59:46;97430.69;;;9.31;100.00
26807;BME280;14380;49.910;6.792;2024-03-02T07:02:12;97432.41;;;9.56;100.00
26807;BME280;14380;49.910;6.792;2024-03-02T07:04:39;97436.69;;;9.33;100.00
26807;BME280;14380;49.910;6.792;2024-03-02T07:07:05;97437.75;;;9.30;100.00
26807;BME280;14380;49.910;6.792;2024-03-02T07:09:33;97428.25;;;9.41;100.00
26807;BME280;14380;49.910;6.792;2024-03-02T07:12:00;97429.31;;;9.38;100.00
26807;BME280;14380;49.910;6.792;2024-03-02T07:14:27;97432.28;;;9.58;100.00
26807;BME280;14380;49.910;6.792;2024-03-02T07:17:20;97439.31;;;9.70;100.00
26807;BME280;14380;49.910;6.792;2024-03-02T07:19:47;97439.75;;;9.88;100.00
26807;BME280;14380;49.910;6.792;2024-03-02T07:22:13;97437.84;;;9.66;99.10
26807;BME280;14380;49.910;6.792;2024-03-02T07:24:42;97449.06;;;9.81;97.60
26807;BME280;14380;49.910;6.792;2024-03-02T07:27:09;97448.97;;;9.94;98.75
26807;BME280;14380;49.910;6.792;2024-03-02T07:29:36;97449.06;;;9.81;100.00
26807;BME280;14380;49.910;6.792;2024-03-02T07:32:03;97440.44;;;10.15;100.00
26807;BME280;14380;49.910;6.792;2024-03-02T07:34:29;97445.81;;;9.77;99.76
26807;BME280;14380;49.910;6.792;2024-03-02T07:36:56;97442.22;;;10.03;99.38
26807;BME280;14380;49.910;6.792;2024-03-02T07:39:23;97448.22;;;10.16;99.27
26807;BME280;14380;49.910;6.792;2024-03-02T07:41:51;97444.97;;;9.77;97.97
26807;BME280;14380;49.910;6.792;2024-03-02T07:44:18;97443.50;;;10.33;96.23
26807;BME280;14380;49.910;6.792;2024-03-02T07:46:46;97438.22;;;10.33;92.64
26807;BME280;14380;49.910;6.792;2024-03-02T07:49:15;97449.25;;;10.38;93.50
26807;BME280;14380;49.910;6.792;2024-03-02T07:51:41;97441.34;;;10.38;94.05
26807;BME280;14380;49.910;6.792;2024-03-02T07:54:08;97439.25;;;10.19;94.69
26807;BME280;14380;49.910;6.792;2024-03-02T07:56:35;97435.06;;;10.27;92.58
26807;BME280;14380;49.910;6.792;2024-03-02T07:59:03;97440.19;;;10.42;90.68
26807;BME280;14380;49.910;6.792;2024-03-02T08:01:31;97446.22;;;10.67;91.86
26807;BME280;14380;49.910;6.792;2024-03-02T08:03:58;97440.22;;;10.65;92.89
26807;BME280;14380;49.910;6.792;2024-03-02T08:06:25;97437.94;;;10.83;90.09
26807;BME280;14380;49.910;6.792;2024-03-02T08:08:53;97445.84;;;10.60;92.27
26807;BME280;14380;49.910;6.792;2024-03-02T08:11:20;97448.97;;;11.34;88.71
26807;BME280;14380;49.910;6.792;2024-03-02T08:13:46;97452.75;;;10.97;90.52
26807;BME280;14380;49.910;6.792;2024-03-02T08:16:14;97446.97;;;10.92;90.32
26807;BME280;14380;49.910;6.792;2024-03-02T08:18:41;97459.78;;;11.30;88.66
26807;BME280;14380;49.910;6.792;2024-03-02T08:21:08;97454.28;;;10.88;88.73
26807;BME280;14380;49.910;6.792;2024-03-02T08:23:35;97456.06;;;11.10;89.10
26807;BME280;14380;49.910;6.792;2024-03-02T08:26:01;97458.34;;;11.38;86.45
26807;BME280;14380;49.910;6.792;2024-03-02T08:28:28;97456.44;;;11.06;86.71
26807;BME280;14380;49.910;6.792;2024-03-02T08:30:55;97456.34;;;10.96;87.08
26807;BME280;14380;49.910;6.792;2024-03-02T08:33:23;97455.34;;;11.08;88.78
26807;BME280;14380;49.910;6.792;2024-03-02T08:35:50;97452.59;;;11.21;87.76
26807;BME280;14380;49.910;6.792;2024-03-02T08:38:17;97446.94;;;10.58;87.25
26807;BME280;14380;49.910;6.792;2024-03-02T08:40:44;97449.84;;;11.00;86.98
26807;BME280;14380;49.910;6.792;2024-03-02T08:43:11;97439.75;;;11.05;86.65
26807;BME280;14380;49.910;6.792;2024-03-02T08:45:38;97431.94;;;10.92;85.00
26807;BME280;14380;49.910;6.792;2024-03-02T08:48:06;97438.44;;;11.22;84.03
26807;BME280;14380;49.910;6.792;2024-03-02T08:50:35;97440.22;;;11.77;83.68
26807;BME280;14380;49.910;6.792;2024-03-02T08:53:02;97443.25;;;11.72;85.38
26807;BME280;14380;49.910;6.792;2024-03-02T08:55:29;97447.59;;;11.62;80.65
26807;BME280;14380;49.910;6.792;2024-03-02T08:57:56;97448.25;;;11.87;81.12
26807;BME280;14380;49.910;6.792;2024-03-02T09:00:23;97448.44;;;12.07;80.21
26807;BME280;14380;49.910;6.792;2024-03-02T09:02:49;97443.69;;;11.89;79.45
26807;BME280;14380;49.910;6.792;2024-03-02T09:05:16;97454.13;;;11.90;81.79
26807;BME280;14380;49.910;6.792;2024-03-02T09:07:44;97449.91;;;11.55;81.50
26807;BME280;14380;49.910;6.792;2024-03-02T09:10:10;97448.34;;;11.53;82.08
26807;BME280;14380;49.910;6.792;2024-03-02T09:12:37;97449.91;;;11.99;83.01
26807;BME280;14380;49.910;6.792;2024-03-02T09:15:04;97446.22;;;11.79;83.03
26807;BME280;14380;49.910;6.792;2024-03-02T09:17:32;97436.06;;;12.71;79.96
26807;BME280;14380;49.910;6.792;2024-03-02T09:19:58;97442.78;;;12.54;80.47
26807;BME280;14380;49.910;6.792;2024-03-02T09:22:25;97448.53;;;11.72;82.60
26807;BME280;14380;49.910;6.792;2024-03-02T09:24:53;97446.69;;;11.84;81.48
26807;BME280;14380;49.910;6.792;2024-03-02T09:27:19;97452.31;;;12.24;82.11
26807;BME280;14380;49.910;6.792;2024-03-02T09:29:46;97449.31;;;11.96;82.04
26807;BME280;14380;49.910;6.792;2024-03-02T09:32:13;97438.97;;;12.04;81.75
26807;BME280;14380;49.910;6.792;2024-03-02T09:34:40;97442.72;;;11.90;80.48
26807;BME280;14380;49.910;6.792;2024-03-02T09:37:06;97443.41;;;12.03;81.06
26807;BME280;14380;49.910;6.792;2024-03-02T09:39:33;97444.97;;;12.06;81.13
26807;BME280;14380;49.910;6.792;2024-03-02T09:42:01;97440.84;;;12.56;77.73
26807;BME280;14380;49.910;6.792;2024-03-02T09:44:29;97440.91;;;12.23;80.62
26807;BME280;14380;49.910;6.792;2024-03-02T09:46:57;97438.59;;;12.51;80.09
26807;BME280;14380;49.910;6.792;2024-03-02T09:49:24;97436.44;;;12.45;77.70
26807;BME280;14380;49.910;6.792;2024-03-02T09:51:50;97439.22;;;12.64;78.17
26807;BME280;14380;49.910;6.792;2024-03-02T09:54:17;97433.53;;;12.69;79.25
26807;BME280;14380;49.910;6.792;2024-03-02T09:56:43;97422.16;;;13.50;74.63
26807;BME280;14380;49.910;6.792;2024-03-02T09:59:11;97434.41;;;13.42;74.95
26807;BME280;14380;49.910;6.792;2024-03-02T10:01:55;97422.63;;;13.34;75.93
26807;BME280;14380;49.910;6.792;2024-03-02T10:04:23;97427.75;;;13.96;75.47
26807;BME280;14380;49.910;6.792;2024-03-02T10:06:50;97432.78;;;13.19;74.98
26807;BME280;14380;49.910;6.792;2024-03-02T10:09:27;97431.19;;;13.07;76.11
26807;BME280;14380;49.910;6.792;2024-03-02T10:11:54;97428.41;;;13.49;75.80
26807;BME280;14380;49.910;6.792;2024-03-02T10:14:31;97427.63;;;13.68;76.69
26807;BME280;14380;49.910;6.792;2024-03-02T10:17:02;97419.66;;;13.68;76.46
26807;BME280;14380;49.910;6.792;2024-03-02T10:19:28;97412.06;;;13.44;77.22
26807;BME280;14380;49.910;6.792;2024-03-02T10:21:58;97409.66;;;13.31;74.55
26807;BME280;14380;49.910;6.792;2024-03-02T10:24:25;97412.53;;;13.59;76.13
26807;BME280;14380;49.910;6.792;2024-03-02T10:26:52;97420.44;;;13.39;74.87
26807;BME280;14380;49.910;6.792;2024-03-02T10:29:19;97409.38;;;13.34;73.97
26807;BME280;14380;49.910;6.792;2024-03-02T10:31:47;97411.16;;;13.14;76.74
26807;BME280;14380;49.910;6.792;2024-03-02T10:34:14;97409.16;;;13.47;74.18
26807;BME280;14380;49.910;6.792;2024-03-02T10:36:42;97408.78;;;13.21;76.09
26807;BME280;14380;49.910;6.792;2024-03-02T10:39:09;97408.34;;;13.16;75.13
26807;BME280;14380;49.910;6.792;2024-03-02T10:41:38;97406.03;;;12.60;77.79
26807;BME280;14380;49.910;6.792;2024-03-02T10:44:06;97403.91;;;12.54;80.94
26807;BME280;14380;49.910;6.792;2024-03-02T10:46:35;97404.56;;;13.08;79.22
26807;BME280;14380;49.910;6.792;2024-03-02T10:49:04;97401.28;;;13.36;77.54
26807;BME280;14380;49.910;6.792;2024-03-02T10:51:32;97398.00;;;13.44;77.47
26807;BME280;14380;49.910;6.792;2024-03-02T10:54:01;97390.75;;;13.65;78.52
26807;BME280;14380;49.910;6.792;2024-03-02T10:56:31;97391.41;;;13.48;75.06
26807;BME280;14380;49.910;6.792;2024-03-02T10:59:02;97387.41;;;13.63;77.91
26807;BME280;14380;49.910;6.792;2024-03-02T11:01:31;97382.94;;;14.13;73.66
26807;BME280;14380;49.910;6.792;2024-03-02T11:03:59;97380.09;;;14.34;75.96
26807;BME280;14380;49.910;6.792;2024-03-02T11:06:30;97395.50;;;13.81;76.84
26807;BME280;14380;49.910;6.792;2024-03-02T11:09:00;97393.28;;;14.06;73.07
26807;BME280;14380;49.910;6.792;2024-03-02T11:11:37;97392.31;;;13.88;73.72
26807;BME280;14380;49.910;6.792;2024-03-02T11:14:07;97392.97;;;13.70;74.56
26807;BME280;14380;49.910;6.792;2024-03-02T11:16:38;97392.47;;;13.26;74.45
26807;BME280;14380;49.910;6.792;2024-03-02T11:19:10;97384.09;;;13.20;75.97
26807;BME280;14380;49.910;6.792;2024-03-02T11:21:38;97378.88;;;13.79;75.10
26807;BME280;14380;49.910;6.792;2024-03-02T11:24:33;97376.34;;;14.27;75.13
26807;BME280;14380;49.910;6.792;2024-03-02T11:27:01;97374.69;;;13.96;74.89
26807;BME280;14380;49.910;6.792;2024-03-02T11:29:43;97365.59;;;14.28;75.37
26807;BME280;14380;49.910;6.792;2024-03-02T11:32:14;97358.78;;;14.64;75.11
26807;BME280;14380;49.910;6.792;2024-03-02T11:34:43;97350.63;;;14.27;73.81
26807;BME280;14380;49.910;6.792;2024-03-02T11:37:13;97356.50;;;14.21;74.18
26807;BME280;14380;49.910;6.792;2024-03-02T11:39:40;97352.97;;;14.88;74.44
26807;BME280;14380;49.910;6.792;2024-03-02T11:42:08;97338.06;;;14.67;73.90
26807;BME280;14380;49.910;6.792;2024-03-02T11:44:35;97342.03;;;14.53;71.54
26807;BME280;14380;49.910;6.792;2024-03-02T11:47:06;97337.38;;;14.75;71.79
26807;BME280;14380;49.910;6.792;2024-03-02T11:49:40;97330.38;;;14.26;69.32
26807;BME280;14380;49.910;6.792;2024-03-02T11:52:08;97331.22;;;14.65;71.64
26807;BME280;14380;49.910;6.792;2024-03-02T11:54:39;97318.06;;;15.01;72.33
26807;BME280;14380;49.910;6.792;2024-03-02T11:57:06;97323.25;;;14.65;71.78
26807;BME280;14380;49.910;6.792;2024-03-02T11:59:33;97318.22;;;14.99;71.90
26807;BME280;14380;49.910;6.792;2024-03-02T12:02:00;97304.72;;;14.45;70.88
26807;BME280;14380;49.910;6.792;2024-03-02T12:04:27;97309.38;;;14.81;70.60
26807;BME280;14380;49.910;6.792;2024-03-02T12:06:54;97305.47;;;15.03;69.10
26807;BME280;14380;49.910;6.792;2024-03-02T12:09:21;97304.13;;;15.17;68.66
26807;BME280;14380;49.910;6.792;2024-03-02T12:12:01;97298.50;;;15.20;66.87
26807;BME280;14380;49.910;6.792;2024-03-02T12:14:28;97304.59;;;15.49;68.19
26807;BME280;14380;49.910;6.792;2024-03-02T12:16:55;97296.53;;;15.40;69.09
26807;BME280;14380;49.910;6.792;2024-03-02T12:19:24;97299.47;;;15.19;68.95
26807;BME280;14380;49.910;6.792;2024-03-02T12:21:50;97299.34;;;14.65;68.54
26807;BME280;14380;49.910;6.792;2024-03-02T12:24:18;97296.28;;;14.69;68.37
26807;BME280;14380;49.910;6.792;2024-03-02T12:26:45;97287.25;;;14.80;70.10
26807;BME280;14380;49.910;6.792;2024-03-02T12:29:14;97282.06;;;15.07;68.76
26807;BME280;14380;49.910;6.792;2024-03-02T12:31:42;97282.53;;;15.20;68.00
26807;BME280;14380;49.910;6.792;2024-03-02T12:34:11;97276.56;;;15.81;69.92
26807;BME280;14380;49.910;6.792;2024-03-02T12:36:39;97273.06;;;15.36;68.97
26807;BME280;14380;49.910;6.792;2024-03-02T12:39:07;97271.91;;;16.01;67.24
26807;BME280;14380;49.910;6.792;2024-03-02T12:41:36;97261.41;;;15.55;66.04
26807;BME280;14380;49.910;6.792;2024-03-02T12:44:03;97265.78;;;15.38;68.15
26807;BME280;14380;49.910;6.792;2024-03-02T12:46:31;97267.59;;;15.82;68.78
26807;BME280;14380;49.910;6.792;2024-03-02T12:48:58;97265.22;;;15.52;66.04
26807;BME280;14380;49.910;6.792;2024-03-02T12:51:26;97265.91;;;15.99;66.08
26807;BME280;14380;49.910;6.792;2024-03-02T12:53:54;97267.63;;;15.64;67.40
26807;BME280;14380;49.910;6.792;2024-03-02T12:56:22;97266.53;;;15.74;66.82
26807;BME280;14380;49.910;6.792;2024-03-02T12:58:53;97261.69;;;15.70;65.40
26807;BME280;14380;49.910;6.792;2024-03-02T13:01:20;97259.56;;;15.73;65.59
26807;BME280;14380;49.910;6.792;2024-03-02T13:03:49;97252.53;;;16.09;66.67
26807;BME280;14380;49.910;6.792;2024-03-02T13:06:16;97251.19;;;16.13;65.12